sensor_id;sensor_type;location;lat;lon;timestamp;temperature;humidity
19348;DHT22;9810;52.480;9.806;2023-09-07T00:00:04;16.10;99.90
19348;DHT22;9810;52.480;9.806;2023-09-07T00:02:36;16.00;99.90
19348;DHT22;9810;52.480;9.806;2023-09-07T00:05:05;15.90;99.90
19348;DHT22;9810;52.480;9.806;2023-09-07T00:07:33;15.80;99.90
19348;DHT22;9810;52.480;9.806;2023-09-07T00:10:00;15.70;99.90
19348;DHT22;9810;52.480;9.806;2023-09-07T00:12:27;15.80;99.90
19348;DHT22;9810;52.480;9.806;2023-09-07T00:14:57;15.80;99.90
19348;DHT22;9810;52.480;9.806;2023-09-07T00:17:25;15.80;99.90
19348;DHT22;9810;52.480;9.806;2023-09-07T00:19:52;15.90;99.90
19348;DHT22;9810;52.480;9.806;2023-09-07T00:22:20;16.00;99.90
19348;DHT22;9810;52.480;9.806;2023-09-07T00:24:47;16.10;99.90
19348;DHT22;9810;52.480;9.806;2023-09-07T00:27:14;16.50;99.90
19348;DHT22;9810;52.480;9.806;2023-09-07T00:29:41;16.70;99.90
19348;DHT22;9810;52.480;9.806;2023-09-07T00:32:10;16.70;99.90
19348;DHT22;9810;52.480;9.806;2023-09-07T00:34:37;16.40;99.90
19348;DHT22;9810;52.480;9.806;2023-09-07T00:37:04;16.30;99.90
19348;DHT22;9810;52.480;9.806;2023-09-07T00:39:31;16.00;99.90
19348;DHT22;9810;52.480;9.806;2023-09-07T00:41:58;15.50;99.90
19348;DHT22;9810;52.480;9.806;2023-09-07T00:44:25;15.30;99.90
19348;DHT22;9810;52.480;9.806;2023-09-07T00:46:52;15.30;99.90
19348;DHT22;9810;52.480;9.806;2023-09-07T00:49:20;15.20;99.90
19348;DHT22;9810;52.480;9.806;2023-09-07T00:51:47;15.00;99.90
19348;DHT22;9810;52.480;9.806;2023-09-07T00:54:14;14.80;99.90
19348;DHT22;9810;52.480;9.806;2023-09-07T00:56:41;14.50;99.90
19348;DHT22;9810;52.480;9.806;2023-09-07T00:59:10;14.60;99.90
19348;DHT22;9810;52.480;9.806;2023-09-07T01:01:38;14.80;99.90
19348;DHT22;9810;52.480;9.806;2023-09-07T01:04:05;15.20;99.90
19348;DHT22;9810;52.480;9.806;2023-09-07T01:06:37;15.50;99.90
19348;DHT22;9810;52.480;9.806;2023-09-07T01:09:10;15.60;99.90
19348;DHT22;9810;52.480;9.806;2023-09-07T01:11:38;15.60;99.90
19348;DHT22;9810;52.480;9.806;2023-09-07T01:14:05;15.50;99.90
19348;DHT22;9810;52.480;9.806;2023-09-07T01:16:33;15.40;99.90
19348;DHT22;9810;52.480;9.806;2023-09-07T01:19:01;15.40;99.90
19348;DHT22;9810;52.480;9.806;2023-09-07T01:21:34;15.50;99.90
19348;DHT22;9810;52.480;9.806;2023-09-07T01:24:03;15.50;99.90
19348;DHT22;9810;52.480;9.806;2023-09-07T01:26:31;15.70;99.90
19348;DHT22;9810;52.480;9.806;2023-09-07T01:28:58;16.00;99.90
19348;DHT22;9810;52.480;9.806;2023-09-07T01:31:25;16.20;99.90
19348;DHT22;9810;52.480;9.806;2023-09-07T01:33:52;16.00;99.90
19348;DHT22;9810;52.480;9.806;2023-09-07T01:36:19;16.00;99.90
19348;DHT22;9810;52.480;9.806;2023-09-07T01:38:47;15.90;99.90
19348;DHT22;9810;52.480;9.806;2023-09-07T01:41:15;15.90;99.90
19348;DHT22;9810;52.480;9.806;2023-09-07T01:43:42;15.70;99.90
19348;DHT22;9810;52.480;9.806;2023-09-07T01:46:09;15.50;99.90
19348;DHT22;9810;52.480;9.806;2023-09-07T01:48:36;15.60;99.90
19348;DHT22;9810;52.480;9.806;2023-09-07T01:51:03;15.70;99.90
19348;DHT22;9810;52.480;9.806;2023-09-07T01:53:30;15.20;99.90
19348;DHT22;9810;52.480;9.806;2023-09-07T01:55:58;14.80;99.90
19348;DHT22;9810;52.480;9.806;2023-09-07T01:58:25;14.70;99.90
19348;DHT22;9810;52.480;9.806;2023-09-07T02:00:56;14.90;99.90
19348;DHT22;9810;52.480;9.806;2023-09-07T02:03:23;15.20;99.90
19348;DHT22;9810;52.480;9.806;2023-09-07T02:05:52;15.50;99.90
19348;DHT22;9810;52.480;9.806;2023-09-07T02:08:20;15.60;99.90
19348;DHT22;9810;52.480;9.806;2023-09-07T02:10:47;15.50;99.90
19348;DHT22;9810;52.480;9.806;2023-09-07T02:13:15;15.50;99.90
19348;DHT22;9810;52.480;9.806;2023-09-07T02:15:42;15.30;99.90
19348;DHT22;9810;52.480;9.806;2023-09-07T02:18:09;15.30;99.90
19348;DHT22;9810;52.480;9.806;2023-09-07T02:20:36;15.30;99.90
19348;DHT22;9810;52.480;9.806;2023-09-07T02:23:03;15.40;99.90
19348;DHT22;9810;52.480;9.806;2023-09-07T02:25:30;15.40;99.90
19348;DHT22;9810;52.480;9.806;2023-09-07T02:27:57;15.50;99.90
19348;DHT22;9810;52.480;9.806;2023-09-07T02:30:26;15.50;99.90
19348;DHT22;9810;52.480;9.806;2023-09-07T02:32:53;15.40;99.90
19348;DHT22;9810;52.480;9.806;2023-09-07T02:35:20;15.40;99.90
19348;DHT22;9810;52.480;9.806;2023-09-07T02:37:48;15.40;99.90
19348;DHT22;9810;52.480;9.806;2023-09-07T02:40:15;15.40;99.90
19348;DHT22;9810;52.480;9.806;2023-09-07T02:42:42;15.30;99.90
19348;DHT22;9810;52.480;9.806;2023-09-07T02:45:11;15.40;99.90
19348;DHT22;9810;52.480;9.806;2023-09-07T02:47:40;15.50;99.90
19348;DHT22;9810;52.480;9.806;2023-09-07T02:50:07;15.50;99.90
19348;DHT22;9810;52.480;9.806;2023-09-07T02:52:34;15.50;99.90
19348;DHT22;9810;52.480;9.806;2023-09-07T02:55:01;15.70;99.90
19348;DHT22;9810;52.480;9.806;2023-09-07T02:57:32;15.50;99.90
19348;DHT22;9810;52.480;9.806;2023-09-07T02:59:58;15.70;99.90
19348;DHT22;9810;52.480;9.806;2023-09-07T03:02:27;15.90;99.90
19348;DHT22;9810;52.480;9.806;2023-09-07T03:04:55;15.70;99.90
19348;DHT22;9810;52.480;9.806;2023-09-07T03:07:24;15.50;99.90
19348;DHT22;9810;52.480;9.806;2023-09-07T03:09:52;15.40;99.90
19348;DHT22;9810;52.480;9.806;2023-09-07T03:12:19;15.40;99.90
19348;DHT22;9810;52.480;9.806;2023-09-07T03:14:46;15.50;99.90
19348;DHT22;9810;52.480;9.806;2023-09-07T03:17:14;15.40;99.90
19348;DHT22;9810;52.480;9.806;2023-09-07T03:19:41;15.50;99.90
19348;DHT22;9810;52.480;9.806;2023-09-07T03:22:10;15.70;99.90
19348;DHT22;9810;52.480;9.806;2023-09-07T03:24:37;15.50;99.90
19348;DHT22;9810;52.480;9.806;2023-09-07T03:27:04;15.50;99.90
19348;DHT22;9810;52.480;9.806;2023-09-07T03:29:31;15.50;99.90
19348;DHT22;9810;52.480;9.806;2023-09-07T03:31:59;15.60;99.90
19348;DHT22;9810;52.480;9.806;2023-09-07T03:34:26;15.80;99.90
19348;DHT22;9810;52.480;9.806;2023-09-07T03:36:53;16.00;99.90
19348;DHT22;9810;52.480;9.806;2023-09-07T03:39:22;15.80;99.90
19348;DHT22;9810;52.480;9.806;2023-09-07T03:41:49;16.00;99.90
19348;DHT22;9810;52.480;9.806;2023-09-07T03:44:17;15.70;99.90
19348;DHT22;9810;52.480;9.806;2023-09-07T03:46:44;15.60;99.90
19348;DHT22;9810;52.480;9.806;2023-09-07T03:49:11;15.40;99.90
19348;DHT22;9810;52.480;9.806;2023-09-07T03:51:38;15.30;99.90
19348;DHT22;9810;52.480;9.806;2023-09-07T03:54:05;15.30;99.90
19348;DHT22;9810;52.480;9.806;2023-09-07T03:56:34;15.30;99.90
19348;DHT22;9810;52.480;9.806;2023-09-07T03:59:01;15.40;99.90
19348;DHT22;9810;52.480;9.806;2023-09-07T04:01:28;15.40;99.90
19348;DHT22;9810;52.480;9.806;2023-09-07T04:03:55;15.20;99.90
19348;DHT22;9810;52.480;9.806;2023-09-07T04:06:22;15.40;99.90
19348;DHT22;9810;52.480;9.806;2023-09-07T04:08:50;15.40;99.90
19348;DHT22;9810;52.480;9.806;2023-09-07T04:11:17;15.20;99.90
19348;DHT22;9810;52.480;9.806;2023-09-07T04:13:45;15.10;99.90
19348;DHT22;9810;52.480;9.806;2023-09-07T04:16:12;15.10;99.90
19348;DHT22;9810;52.480;9.806;2023-09-07T04:18:39;15.00;99.90
19348;DHT22;9810;52.480;9.806;2023-09-07T04:21:08;15.00;99.90
19348;DHT22;9810;52.480;9.806;2023-09-07T04:23:35;15.00;99.90
19348;DHT22;9810;52.480;9.806;2023-09-07T04:26:06;15.20;99.90
19348;DHT22;9810;52.480;9.806;2023-09-07T04:28:33;15.10;99.90
19348;DHT22;9810;52.480;9.806;2023-09-07T04:31:02;15.10;99.90
19348;DHT22;9810;52.480;9.806;2023-09-07T04:33:30;15.10;99.90
19348;DHT22;9810;52.480;9.806;2023-09-07T04:35:57;15.00;99.90
19348;DHT22;9810;52.480;9.806;2023-09-07T04:38:25;14.90;99.90
19348;DHT22;9810;52.480;9.806;2023-09-07T04:40:52;14.90;99.90
19348;DHT22;9810;52.480;9.806;2023-09-07T04:43:18;14.90;99.90
19348;DHT22;9810;52.480;9.806;2023-09-07T04:45:46;14.90;99.90
19348;DHT22;9810;52.480;9.806;2023-09-07T04:48:15;14.90;99.90
19348;DHT22;9810;52.480;9.806;2023-09-07T04:50:42;15.00;99.90
19348;DHT22;9810;52.480;9.806;2023-09-07T04:53:09;15.20;99.90
19348;DHT22;9810;52.480;9.806;2023-09-07T04:55:37;15.30;99.90
19348;DHT22;9810;52.480;9.806;2023-09-07T04:58:05;15.20;99.90
19348;DHT22;9810;52.480;9.806;2023-09-07T05:00:33;15.20;99.90
19348;DHT22;9810;52.480;9.806;2023-09-07T05:02:59;15.10;99.90
19348;DHT22;9810;52.480;9.806;2023-09-07T05:05:29;15.20;99.90
19348;DHT22;9810;52.480;9.806;2023-09-07T05:07:56;15.30;99.90
19348;DHT22;9810;52.480;9.806;2023-09-07T05:10:23;15.30;99.90
19348;DHT22;9810;52.480;9.806;2023-09-07T05:12:50;15.70;99.90
19348;DHT22;9810;52.480;9.806;2023-09-07T05:15:17;15.70;99.90
19348;DHT22;9810;52.480;9.806;2023-09-07T05:17:44;15.50;99.90
19348;DHT22;9810;52.480;9.806;2023-09-07T05:20:11;15.30;99.90
19348;DHT22;9810;52.480;9.806;2023-09-07T05:22:40;15.30;99.90
19348;DHT22;9810;52.480;9.806;2023-09-07T05:25:07;15.60;99.90
19348;DHT22;9810;52.480;9.806;2023-09-07T05:27:35;15.60;99.90
19348;DHT22;9810;52.480;9.806;2023-09-07T05:30:03;15.50;99.90
19348;DHT22;9810;52.480;9.806;2023-09-07T05:32:30;15.60;99.90
19348;DHT22;9810;52.480;9.806;2023-09-07T05:34:57;15.50;99.90
19348;DHT22;9810;52.480;9.806;2023-09-07T05:37:25;15.50;99.90
19348;DHT22;9810;52.480;9.806;2023-09-07T05:40:26;15.60;99.90
19348;DHT22;9810;52.480;9.806;2023-09-07T05:42:53;15.80;99.90
19348;DHT22;9810;52.480;9.806;2023-09-07T05:45:21;16.10;99.90
19348;DHT22;9810;52.480;9.806;2023-09-07T05:47:50;16.00;99.90
19348;DHT22;9810;52.480;9.806;2023-09-07T05:50:17;16.10;99.90
19348;DHT22;9810;52.480;9.806;2023-09-07T05:52:44;16.20;99.90
19348;DHT22;9810;52.480;9.806;2023-09-07T05:55:11;16.30;99.90
19348;DHT22;9810;52.480;9.806;2023-09-07T05:57:40;16.30;99.90
19348;DHT22;9810;52.480;9.806;2023-09-07T06:00:08;16.50;99.90
19348;DHT22;9810;52.480;9.806;2023-09-07T06:02:38;16.60;99.90
19348;DHT22;9810;52.480;9.806;2023-09-07T06:05:06;17.00;99.90
19348;DHT22;9810;52.480;9.806;2023-09-07T06:07:33;17.50;99.90
19348;DHT22;9810;52.480;9.806;2023-09-07T06:10:00;17.20;99.90
19348;DHT22;9810;52.480;9.806;2023-09-07T06:12:27;17.30;99.90
19348;DHT22;9810;52.480;9.806;2023-09-07T06:14:59;17.60;99.90
19348;DHT22;9810;52.480;9.806;2023-09-07T06:17:26;17.50;99.90
19348;DHT22;9810;52.480;9.806;2023-09-07T06:19:56;17.50;99.90
19348;DHT22;9810;52.480;9.806;2023-09-07T06:22:26;17.50;99.90
19348;DHT22;9810;52.480;9.806;2023-09-07T06:24:53;17.60;99.90
19348;DHT22;9810;52.480;9.806;2023-09-07T06:27:22;17.60;99.90
19348;DHT22;9810;52.480;9.806;2023-09-07T06:29:49;17.70;99.90
19348;DHT22;9810;52.480;9.806;2023-09-07T06:32:35;17.70;99.90
19348;DHT22;9810;52.480;9.806;2023-09-07T06:35:02;18.00;99.90
19348;DHT22;9810;52.480;9.806;2023-09-07T06:37:30;18.10;99.90
19348;DHT22;9810;52.480;9.806;2023-09-07T06:39:58;18.10;99.90
19348;DHT22;9810;52.480;9.806;2023-09-07T06:42:25;18.10;99.90
19348;DHT22;9810;52.480;9.806;2023-09-07T06:44:52;18.20;99.90
19348;DHT22;9810;52.480;9.806;2023-09-07T06:47:19;18.40;99.90
19348;DHT22;9810;52.480;9.806;2023-09-07T07:00:07;18.70;99.90
19348;DHT22;9810;52.480;9.806;2023-09-07T07:50:27;23.20;99.90
19348;DHT22;9810;52.480;9.806;2023-09-07T07:52:54;23.70;99.90
19348;DHT22;9810;52.480;9.806;2023-09-07T07:58:40;24.10;99.90
19348;DHT22;9810;52.480;9.806;2023-09-07T08:01:14;24.80;99.90
19348;DHT22;9810;52.480;9.806;2023-09-07T08:03:41;24.90;99.90
19348;DHT22;9810;52.480;9.806;2023-09-07T08:06:09;24.80;99.90
19348;DHT22;9810;52.480;9.806;2023-09-07T08:08:37;25.40;99.90
19348;DHT22;9810;52.480;9.806;2023-09-07T08:11:06;25.50;99.90
19348;DHT22;9810;52.480;9.806;2023-09-07T08:13:34;25.80;99.90
19348;DHT22;9810;52.480;9.806;2023-09-07T08:16:04;26.20;99.90
19348;DHT22;9810;52.480;9.806;2023-09-07T08:18:34;26.10;99.90
19348;DHT22;9810;52.480;9.806;2023-09-07T08:21:06;25.30;99.90
19348;DHT22;9810;52.480;9.806;2023-09-07T08:23:36;25.90;99.90
19348;DHT22;9810;52.480;9.806;2023-09-07T08:26:04;26.20;99.90
19348;DHT22;9810;52.480;9.806;2023-09-07T08:28:32;26.20;99.90
19348;DHT22;9810;52.480;9.806;2023-09-07T08:31:09;27.00;99.90
19348;DHT22;9810;52.480;9.806;2023-09-07T08:33:38;27.00;99.90
19348;DHT22;9810;52.480;9.806;2023-09-07T08:36:18;26.70;99.90
19348;DHT22;9810;52.480;9.806;2023-09-07T08:38:52;26.80;99.90
19348;DHT22;9810;52.480;9.806;2023-09-07T08:41:21;26.70;99.90
19348;DHT22;9810;52.480;9.806;2023-09-07T08:43:54;27.40;99.90
19348;DHT22;9810;52.480;9.806;2023-09-07T08:46:26;27.40;99.90
19348;DHT22;9810;52.480;9.806;2023-09-07T08:48:56;28.20;99.90
19348;DHT22;9810;52.480;9.806;2023-09-07T08:51:28;28.40;99.90
19348;DHT22;9810;52.480;9.806;2023-09-07T08:53:57;27.80;99.90
19348;DHT22;9810;52.480;9.806;2023-09-07T08:56:25;27.80;99.90
19348;DHT22;9810;52.480;9.806;2023-09-07T08:58:53;27.40;99.90
19348;DHT22;9810;52.480;9.806;2023-09-07T09:01:21;27.50;99.90
19348;DHT22;9810;52.480;9.806;2023-09-07T09:03:48;27.50;99.90
19348;DHT22;9810;52.480;9.806;2023-09-07T09:06:18;28.00;99.90
19348;DHT22;9810;52.480;9.806;2023-09-07T09:08:46;28.40;99.90
19348;DHT22;9810;52.480;9.806;2023-09-07T09:11:18;28.20;99.90
19348;DHT22;9810;52.480;9.806;2023-09-07T09:13:48;28.40;99.90
19348;DHT22;9810;52.480;9.806;2023-09-07T09:16:24;28.40;99.90
19348;DHT22;9810;52.480;9.806;2023-09-07T09:19:00;28.00;99.90
19348;DHT22;9810;52.480;9.806;2023-09-07T09:21:28;28.20;99.90
19348;DHT22;9810;52.480;9.806;2023-09-07T09:23:58;28.90;99.90
19348;DHT22;9810;52.480;9.806;2023-09-07T09:26:28;28.70;99.90
19348;DHT22;9810;52.480;9.806;2023-09-07T09:28:59;29.50;99.90
19348;DHT22;9810;52.480;9.806;2023-09-07T09:31:29;29.50;99.90
19348;DHT22;9810;52.480;9.806;2023-09-07T09:33:58;28.90;99.90
19348;DHT22;9810;52.480;9.806;2023-09-07T09:36:33;28.90;99.90
19348;DHT22;9810;52.480;9.806;2023-09-07T09:39:00;29.80;99.90
19348;DHT22;9810;52.480;9.806;2023-09-07T09:41:38;30.30;99.90
19348;DHT22;9810;52.480;9.806;2023-09-07T09:44:06;30.20;99.90
19348;DHT22;9810;52.480;9.806;2023-09-07T09:46:35;29.30;99.90
19348;DHT22;9810;52.480;9.806;2023-09-07T09:49:02;29.30;99.90
19348;DHT22;9810;52.480;9.806;2023-09-07T09:51:31;29.00;99.90
19348;DHT22;9810;52.480;9.806;2023-09-07T09:54:05;29.30;99.90
19348;DHT22;9810;52.480;9.806;2023-09-07T09:56:52;28.90;99.90
19348;DHT22;9810;52.480;9.806;2023-09-07T09:59:23;29.30;99.90
19348;DHT22;9810;52.480;9.806;2023-09-07T10:01:52;29.60;99.90
19348;DHT22;9810;52.480;9.806;2023-09-07T10:04:24;30.30;99.90
19348;DHT22;9810;52.480;9.806;2023-09-07T10:07:02;29.50;99.90
19348;DHT22;9810;52.480;9.806;2023-09-07T10:09:32;30.00;99.90
19348;DHT22;9810;52.480;9.806;2023-09-07T10:12:12;30.60;99.90
19348;DHT22;9810;52.480;9.806;2023-09-07T10:14:40;30.80;99.90
19348;DHT22;9810;52.480;9.806;2023-09-07T10:17:09;30.30;99.90
19348;DHT22;9810;52.480;9.806;2023-09-07T10:19:38;30.30;99.90
19348;DHT22;9810;52.480;9.806;2023-09-07T10:22:21;29.40;99.90
19348;DHT22;9810;52.480;9.806;2023-09-07T10:24:57;29.30;99.90
19348;DHT22;9810;52.480;9.806;2023-09-07T10:27:36;29.50;99.90
19348;DHT22;9810;52.480;9.806;2023-09-07T10:30:09;28.70;99.90
19348;DHT22;9810;52.480;9.806;2023-09-07T10:32:40;28.00;99.90
19348;DHT22;9810;52.480;9.806;2023-09-07T10:35:13;27.70;99.90
19348;DHT22;9810;52.480;9.806;2023-09-07T10:37:44;27.90;99.90
19348;DHT22;9810;52.480;9.806;2023-09-07T10:40:11;28.60;99.90
19348;DHT22;9810;52.480;9.806;2023-09-07T10:42:43;29.10;99.90
19348;DHT22;9810;52.480;9.806;2023-09-07T10:45:11;28.90;99.90
19348;DHT22;9810;52.480;9.806;2023-09-07T10:47:42;29.00;99.90
19348;DHT22;9810;52.480;9.806;2023-09-07T10:50:11;28.50;99.90
19348;DHT22;9810;52.480;9.806;2023-09-07T10:52:39;28.30;99.90
19348;DHT22;9810;52.480;9.806;2023-09-07T10:55:08;28.70;99.90
19348;DHT22;9810;52.480;9.806;2023-09-07T10:57:44;28.30;99.90
19348;DHT22;9810;52.480;9.806;2023-09-07T11:00:13;28.30;99.90
19348;DHT22;9810;52.480;9.806;2023-09-07T11:02:42;28.40;99.90
19348;DHT22;9810;52.480;9.806;2023-09-07T11:05:09;27.40;99.90
19348;DHT22;9810;52.480;9.806;2023-09-07T11:07:37;27.00;99.90
19348;DHT22;9810;52.480;9.806;2023-09-07T11:10:07;26.90;99.90
19348;DHT22;9810;52.480;9.806;2023-09-07T11:12:37;26.90;99.90
19348;DHT22;9810;52.480;9.806;2023-09-07T11:15:09;26.40;99.90
19348;DHT22;9810;52.480;9.806;2023-09-07T11:17:41;27.40;99.90
19348;DHT22;9810;52.480;9.806;2023-09-07T11:20:12;28.00;99.90
19348;DHT22;9810;52.480;9.806;2023-09-07T11:22:39;28.10;99.90
19348;DHT22;9810;52.480;9.806;2023-09-07T11:25:11;28.70;99.90
19348;DHT22;9810;52.480;9.806;2023-09-07T11:27:40;28.60;99.90
19348;DHT22;9810;52.480;9.806;2023-09-07T11:30:12;28.10;99.90
19348;DHT22;9810;52.480;9.806;2023-09-07T11:32:39;28.40;99.90
19348;DHT22;9810;52.480;9.806;2023-09-07T11:35:09;27.80;99.90
19348;DHT22;9810;52.480;9.806;2023-09-07T11:37:41;27.80;99.90
19348;DHT22;9810;52.480;9.806;2023-09-07T11:40:10;28.10;99.90
19348;DHT22;9810;52.480;9.806;2023-09-07T11:42:38;28.30;99.90
19348;DHT22;9810;52.480;9.806;2023-09-07T11:45:08;28.00;99.90
19348;DHT22;9810;52.480;9.806;2023-09-07T11:47:37;27.90;99.90
19348;DHT22;9810;52.480;9.806;2023-09-07T11:50:05;28.50;99.90
19348;DHT22;9810;52.480;9.806;2023-09-07T11:52:33;28.40;99.90
19348;DHT22;9810;52.480;9.806;2023-09-07T11:55:00;28.30;99.90
19348;DHT22;9810;52.480;9.806;2023-09-07T11:57:29;28.30;99.90
19348;DHT22;9810;52.480;9.806;2023-09-07T11:59:56;27.90;99.90
19348;DHT22;9810;52.480;9.806;2023-09-07T12:02:23;28.10;99.90
19348;DHT22;9810;52.480;9.806;2023-09-07T12:04:52;28.20;99.90
19348;DHT22;9810;52.480;9.806;2023-09-07T12:07:22;28.20;99.90
19348;DHT22;9810;52.480;9.806;2023-09-07T12:09:51;28.10;99.90
19348;DHT22;9810;52.480;9.806;2023-09-07T12:12:21;27.90;99.90
19348;DHT22;9810;52.480;9.806;2023-09-07T12:14:53;27.80;99.90
19348;DHT22;9810;52.480;9.806;2023-09-07T12:17:23;28.10;99.90
19348;DHT22;9810;52.480;9.806;2023-09-07T12:19:52;27.90;99.90
19348;DHT22;9810;52.480;9.806;2023-09-07T12:22:21;27.80;99.90
19348;DHT22;9810;52.480;9.806;2023-09-07T12:24:48;28.10;99.90
19348;DHT22;9810;52.480;9.806;2023-09-07T12:27:17;28.10;99.90
19348;DHT22;9810;52.480;9.806;2023-09-07T12:29:46;28.00;99.90
19348;DHT22;9810;52.480;9.806;2023-09-07T12:32:14;28.00;99.90
19348;DHT22;9810;52.480;9.806;2023-09-07T12:34:41;28.10;99.90
19348;DHT22;9810;52.480;9.806;2023-09-07T12:37:14;27.90;99.90
19348;DHT22;9810;52.480;9.806;2023-09-07T12:39:42;28.00;99.90
19348;DHT22;9810;52.480;9.806;2023-09-07T12:42:10;28.10;99.90
19348;DHT22;9810;52.480;9.806;2023-09-07T12:44:39;28.30;99.90
19348;DHT22;9810;52.480;9.806;2023-09-07T12:47:09;28.20;99.90
19348;DHT22;9810;52.480;9.806;2023-09-07T12:49:36;28.10;99.90
19348;DHT22;9810;52.480;9.806;2023-09-07T12:52:07;28.20;99.90
19348;DHT22;9810;52.480;9.806;2023-09-07T12:54:47;28.20;99.90
19348;DHT22;9810;52.480;9.806;2023-09-07T12:57:14;28.30;99.90
19348;DHT22;9810;52.480;9.806;2023-09-07T12:59:41;28.50;99.90
19348;DHT22;9810;52.480;9.806;2023-09-07T13:02:08;28.10;99.90
19348;DHT22;9810;52.480;9.806;2023-09-07T13:04:38;28.40;99.90
19348;DHT22;9810;52.480;9.806;2023-09-07T13:07:05;28.40;99.90
19348;DHT22;9810;52.480;9.806;2023-09-07T13:09:43;28.50;99.90
19348;DHT22;9810;52.480;9.806;2023-09-07T13:12:15;28.20;99.90
19348;DHT22;9810;52.480;9.806;2023-09-07T13:14:42;27.80;99.90
19348;DHT22;9810;52.480;9.806;2023-09-07T13:17:20;27.30;99.90
19348;DHT22;9810;52.480;9.806;2023-09-07T13:19:47;28.10;99.90
19348;DHT22;9810;52.480;9.806;2023-09-07T13:22:14;28.30;99.90
19348;DHT22;9810;52.480;9.806;2023-09-07T13:24:41;28.30;99.90
19348;DHT22;9810;52.480;9.806;2023-09-07T13:27:09;28.50;99.90
19348;DHT22;9810;52.480;9.806;2023-09-07T13:29:38;28.50;99.90
19348;DHT22;9810;52.480;9.806;2023-09-07T13:32:05;28.50;99.90
19348;DHT22;9810;52.480;9.806;2023-09-07T13:34:35;28.70;99.90
19348;DHT22;9810;52.480;9.806;2023-09-07T13:37:05;28.40;99.90
19348;DHT22;9810;52.480;9.806;2023-09-07T13:39:33;28.40;99.90
19348;DHT22;9810;52.480;9.806;2023-09-07T13:42:11;28.70;99.90
19348;DHT22;9810;52.480;9.806;2023-09-07T13:44:43;28.70;99.90
19348;DHT22;9810;52.480;9.806;2023-09-07T13:47:18;28.50;99.90
19348;DHT22;9810;52.480;9.806;2023-09-07T13:49:48;28.40;99.90
19348;DHT22;9810;52.480;9.806;2023-09-07T13:52:17;28.50;99.90
19348;DHT22;9810;52.480;9.806;2023-09-07T13:54:48;28.50;99.90
19348;DHT22;9810;52.480;9.806;2023-09-07T13:57:18;28.60;99.90
19348;DHT22;9810;52.480;9.806;2023-09-07T13:59:57;28.30;99.90
19348;DHT22;9810;52.480;9.806;2023-09-07T14:02:24;28.40;99.90
19348;DHT22;9810;52.480;9.806;2023-09-07T14:04:57;28.50;99.90
19348;DHT22;9810;52.480;9.806;2023-09-07T14:07:27;28.60;99.90
19348;DHT22;9810;52.480;9.806;2023-09-07T14:10:00;28.50;99.90
19348;DHT22;9810;52.480;9.806;2023-09-07T14:12:27;28.60;99.90
19348;DHT22;9810;52.480;9.806;2023-09-07T14:14:56;28.50;99.90
19348;DHT22;9810;52.480;9.806;2023-09-07T14:17:23;28.70;99.90
19348;DHT22;9810;52.480;9.806;2023-09-07T14:19:52;28.70;99.90
19348;DHT22;9810;52.480;9.806;2023-09-07T14:22:20;28.70;99.90
19348;DHT22;9810;52.480;9.806;2023-09-07T14:24:47;28.50;99.90
19348;DHT22;9810;52.480;9.806;2023-09-07T14:27:14;28.70;99.90
19348;DHT22;9810;52.480;9.806;2023-09-07T14:29:46;28.80;99.90
19348;DHT22;9810;52.480;9.806;2023-09-07T14:32:15;28.70;99.90
19348;DHT22;9810;52.480;9.806;2023-09-07T14:34:42;28.60;99.90
19348;DHT22;9810;52.480;9.806;2023-09-07T14:37:10;28.60;99.90
19348;DHT22;9810;52.480;9.806;2023-09-07T14:39:38;28.70;99.90
19348;DHT22;9810;52.480;9.806;2023-09-07T14:42:10;28.80;99.90
19348;DHT22;9810;52.480;9.806;2023-09-07T14:44:41;28.70;99.90
19348;DHT22;9810;52.480;9.806;2023-09-07T14:47:12;28.90;99.90
19348;DHT22;9810;52.480;9.806;2023-09-07T14:49:41;28.70;99.90
19348;DHT22;9810;52.480;9.806;2023-09-07T14:52:08;28.70;99.90
19348;DHT22;9810;52.480;9.806;2023-09-07T14:54:37;28.70;99.90
19348;DHT22;9810;52.480;9.806;2023-09-07T14:57:06;28.60;99.90
19348;DHT22;9810;52.480;9.806;2023-09-07T14:59:35;28.50;99.90
19348;DHT22;9810;52.480;9.806;2023-09-07T15:02:05;28.60;99.90
19348;DHT22;9810;52.480;9.806;2023-09-07T15:04:33;28.50;99.90
19348;DHT22;9810;52.480;9.806;2023-09-07T15:07:03;28.40;99.90
19348;DHT22;9810;52.480;9.806;2023-09-07T15:09:32;28.50;99.90
19348;DHT22;9810;52.480;9.806;2023-09-07T15:12:00;28.50;99.90
19348;DHT22;9810;52.480;9.806;2023-09-07T15:14:26;28.60;99.90
19348;DHT22;9810;52.480;9.806;2023-09-07T15:16:54;28.60;99.90
19348;DHT22;9810;52.480;9.806;2023-09-07T15:19:21;28.60;99.90
19348;DHT22;9810;52.480;9.806;2023-09-07T15:21:48;28.60;99.90
19348;DHT22;9810;52.480;9.806;2023-09-07T15:24:23;28.50;99.90
19348;DHT22;9810;52.480;9.806;2023-09-07T15:26:52;28.30;99.90
19348;DHT22;9810;52.480;9.806;2023-09-07T15:29:19;28.40;99.90
19348;DHT22;9810;52.480;9.806;2023-09-07T15:31:47;28.30;99.90
19348;DHT22;9810;52.480;9.806;2023-09-07T15:34:15;28.30;99.90
19348;DHT22;9810;52.480;9.806;2023-09-07T15:36:42;28.20;99.90
19348;DHT22;9810;52.480;9.806;2023-09-07T15:39:10;28.20;99.90
19348;DHT22;9810;52.480;9.806;2023-09-07T15:41:39;28.20;99.90
19348;DHT22;9810;52.480;9.806;2023-09-07T15:44:06;28.10;99.90
19348;DHT22;9810;52.480;9.806;2023-09-07T15:46:33;28.20;99.90
19348;DHT22;9810;52.480;9.806;2023-09-07T15:49:03;28.10;99.90
19348;DHT22;9810;52.480;9.806;2023-09-07T15:51:30;27.60;99.90
19348;DHT22;9810;52.480;9.806;2023-09-07T15:53:57;27.60;99.90
19348;DHT22;9810;52.480;9.806;2023-09-07T15:56:29;27.70;99.90
19348;DHT22;9810;52.480;9.806;2023-09-07T15:58:58;27.70;99.90
19348;DHT22;9810;52.480;9.806;2023-09-07T16:01:25;27.80;99.90
19348;DHT22;9810;52.480;9.806;2023-09-07T16:03:52;27.80;99.90
19348;DHT22;9810;52.480;9.806;2023-09-07T16:06:19;27.60;99.90
19348;DHT22;9810;52.480;9.806;2023-09-07T16:08:46;27.80;99.90
19348;DHT22;9810;52.480;9.806;2023-09-07T16:11:17;27.70;99.90
19348;DHT22;9810;52.480;9.806;2023-09-07T16:13:47;27.60;99.90
19348;DHT22;9810;52.480;9.806;2023-09-07T16:16:16;27.60;99.90
19348;DHT22;9810;52.480;9.806;2023-09-07T16:18:47;27.50;99.90
19348;DHT22;9810;52.480;9.806;2023-09-07T16:21:15;27.50;99.90
19348;DHT22;9810;52.480;9.806;2023-09-07T16:23:45;27.40;99.90
19348;DHT22;9810;52.480;9.806;2023-09-07T16:26:12;27.10;99.90
19348;DHT22;9810;52.480;9.806;2023-09-07T16:35:35;26.80;99.90
19348;DHT22;9810;52.480;9.806;2023-09-07T16:38:09;26.70;99.90
19348;DHT22;9810;52.480;9.806;2023-09-07T16:40:42;26.60;99.90
19348;DHT22;9810;52.480;9.806;2023-09-07T16:43:09;26.50;99.90
19348;DHT22;9810;52.480;9.806;2023-09-07T16:45:36;26.50;99.90
19348;DHT22;9810;52.480;9.806;2023-09-07T16:48:14;26.40;99.90
19348;DHT22;9810;52.480;9.806;2023-09-07T16:50:58;26.40;99.90
19348;DHT22;9810;52.480;9.806;2023-09-07T16:53:31;26.30;99.90
19348;DHT22;9810;52.480;9.806;2023-09-07T16:56:05;26.20;99.90
19348;DHT22;9810;52.480;9.806;2023-09-07T16:58:32;25.90;99.90
19348;DHT22;9810;52.480;9.806;2023-09-07T17:01:03;25.80;99.90
19348;DHT22;9810;52.480;9.806;2023-09-07T17:03:33;25.30;99.90